sensor_id;sensor_type;location;lat;lon;timestamp;P1;durP1;ratioP1;P2;durP2;ratioP2
74632;SDS011;63139;52.018;8.552;2023-06-22T00:00:30;6.35;;;5.00;;
74632;SDS011;63139;52.018;8.552;2023-06-22T00:02:58;6.90;;;5.97;;
74632;SDS011;63139;52.018;8.552;2023-06-22T00:05:27;7.97;;;6.15;;
74632;SDS011;63139;52.018;8.552;2023-06-22T00:07:55;5.82;;;5.10;;
74632;SDS011;63139;52.018;8.552;2023-06-22T00:10:23;5.18;;;4.55;;
74632;SDS011;63139;52.018;8.552;2023-06-22T00:12:51;7.78;;;5.82;;
74632;SDS011;63139;52.018;8.552;2023-06-22T00:15:19;6.43;;;5.15;;
74632;SDS011;63139;52.018;8.552;2023-06-22T00:17:47;6.65;;;5.00;;
74632;SDS011;63139;52.018;8.552;2023-06-22T00:20:15;5.53;;;4.35;;
74632;SDS011;63139;52.018;8.552;2023-06-22T00:22:45;4.97;;;4.47;;
74632;SDS011;63139;52.018;8.552;2023-06-22T00:25:14;5.22;;;4.72;;
74632;SDS011;63139;52.018;8.552;2023-06-22T00:27:42;7.63;;;5.25;;
74632;SDS011;63139;52.018;8.552;2023-06-22T00:30:10;6.32;;;5.07;;
74632;SDS011;63139;52.018;8.552;2023-06-22T00:32:38;5.35;;;4.85;;
74632;SDS011;63139;52.018;8.552;2023-06-22T00:35:07;5.72;;;5.10;;
74632;SDS011;63139;52.018;8.552;2023-06-22T00:37:38;5.75;;;4.70;;
74632;SDS011;63139;52.018;8.552;2023-06-22T00:40:10;4.82;;;4.20;;
74632;SDS011;63139;52.018;8.552;2023-06-22T00:42:39;4.70;;;4.00;;
74632;SDS011;63139;52.018;8.552;2023-06-22T00:45:08;5.70;;;5.07;;
74632;SDS011;63139;52.018;8.552;2023-06-22T00:47:36;5.80;;;5.05;;
74632;SDS011;63139;52.018;8.552;2023-06-22T00:50:06;5.20;;;4.68;;
74632;SDS011;63139;52.018;8.552;2023-06-22T00:52:36;6.95;;;6.00;;
74632;SDS011;63139;52.018;8.552;2023-06-22T00:55:12;9.27;;;6.70;;
74632;SDS011;63139;52.018;8.552;2023-06-22T00:57:40;9.57;;;6.80;;
74632;SDS011;63139;52.018;8.552;2023-06-22T01:00:09;6.65;;;5.45;;
74632;SDS011;63139;52.018;8.552;2023-06-22T01:02:46;5.50;;;4.70;;
74632;SDS011;63139;52.018;8.552;2023-06-22T01:05:18;8.85;;;6.00;;
74632;SDS011;63139;52.018;8.552;2023-06-22T01:07:54;8.43;;;6.82;;
74632;SDS011;63139;52.018;8.552;2023-06-22T01:10:31;8.45;;;7.35;;
74632;SDS011;63139;52.018;8.552;2023-06-22T01:13:10;10.25;;;8.02;;
74632;SDS011;63139;52.018;8.552;2023-06-22T01:15:44;8.85;;;7.70;;
74632;SDS011;63139;52.018;8.552;2023-06-22T01:18:17;11.10;;;8.20;;
74632;SDS011;63139;52.018;8.552;2023-06-22T01:20:46;8.20;;;7.07;;
74632;SDS011;63139;52.018;8.552;2023-06-22T01:23:18;9.13;;;8.13;;
74632;SDS011;63139;52.018;8.552;2023-06-22T01:26:01;14.23;;;8.40;;
74632;SDS011;63139;52.018;8.552;2023-06-22T01:28:45;8.18;;;7.38;;
74632;SDS011;63139;52.018;8.552;2023-06-22T01:31:14;8.95;;;6.82;;
74632;SDS011;63139;52.018;8.552;2023-06-22T01:33:46;6.97;;;6.15;;
74632;SDS011;63139;52.018;8.552;2023-06-22T01:36:18;10.02;;;8.35;;
74632;SDS011;63139;52.018;8.552;2023-06-22T01:38:46;11.73;;;8.40;;
74632;SDS011;63139;52.018;8.552;2023-06-22T01:41:17;11.88;;;8.38;;
74632;SDS011;63139;52.018;8.552;2023-06-22T01:43:48;8.40;;;7.50;;
74632;SDS011;63139;52.018;8.552;2023-06-22T01:46:19;10.82;;;8.38;;
74632;SDS011;63139;52.018;8.552;2023-06-22T01:48:48;8.13;;;7.32;;
74632;SDS011;63139;52.018;8.552;2023-06-22T01:51:16;10.23;;;8.82;;
74632;SDS011;63139;52.018;8.552;2023-06-22T01:53:44;8.55;;;7.65;;
74632;SDS011;63139;52.018;8.552;2023-06-22T01:56:14;12.52;;;9.77;;
74632;SDS011;63139;52.018;8.552;2023-06-22T01:58:47;11.20;;;9.10;;
74632;SDS011;63139;52.018;8.552;2023-06-22T02:01:20;10.85;;;9.52;;
74632;SDS011;63139;52.018;8.552;2023-06-22T02:03:57;10.85;;;9.27;;
74632;SDS011;63139;52.018;8.552;2023-06-22T02:06:32;9.48;;;8.48;;
74632;SDS011;63139;52.018;8.552;2023-06-22T02:09:06;11.82;;;9.82;;
74632;SDS011;63139;52.018;8.552;2023-06-22T02:11:37;11.95;;;10.02;;
74632;SDS011;63139;52.018;8.552;2023-06-22T02:14:10;13.35;;;10.05;;
74632;SDS011;63139;52.018;8.552;2023-06-22T02:16:39;14.18;;;11.05;;
74632;SDS011;63139;52.018;8.552;2023-06-22T02:19:09;13.88;;;10.15;;
74632;SDS011;63139;52.018;8.552;2023-06-22T02:21:37;14.00;;;10.52;;
74632;SDS011;63139;52.018;8.552;2023-06-22T02:24:05;14.68;;;11.23;;
74632;SDS011;63139;52.018;8.552;2023-06-22T02:26:33;15.23;;;11.70;;
74632;SDS011;63139;52.018;8.552;2023-06-22T02:29:01;16.23;;;12.48;;
74632;SDS011;63139;52.018;8.552;2023-06-22T02:31:30;13.90;;;11.35;;
74632;SDS011;63139;52.018;8.552;2023-06-22T02:33:58;15.25;;;11.23;;
74632;SDS011;63139;52.018;8.552;2023-06-22T02:36:27;14.15;;;11.98;;
74632;SDS011;63139;52.018;8.552;2023-06-22T02:38:59;11.00;;;9.80;;
74632;SDS011;63139;52.018;8.552;2023-06-22T02:41:29;12.75;;;10.60;;
74632;SDS011;63139;52.018;8.552;2023-06-22T02:43:57;13.57;;;11.32;;
74632;SDS011;63139;52.018;8.552;2023-06-22T02:46:25;16.98;;;13.82;;
74632;SDS011;63139;52.018;8.552;2023-06-22T02:48:54;16.20;;;12.95;;
74632;SDS011;63139;52.018;8.552;2023-06-22T02:51:22;14.48;;;12.68;;
74632;SDS011;63139;52.018;8.552;2023-06-22T02:53:50;13.90;;;12.10;;
74632;SDS011;63139;52.018;8.552;2023-06-22T02:56:18;14.45;;;12.60;;
74632;SDS011;63139;52.018;8.552;2023-06-22T02:58:55;14.02;;;11.88;;
74632;SDS011;63139;52.018;8.552;2023-06-22T03:04:06;14.35;;;11.52;;
74632;SDS011;63139;52.018;8.552;2023-06-22T03:06:34;13.10;;;10.88;;
74632;SDS011;63139;52.018;8.552;2023-06-22T03:09:03;13.82;;;11.75;;
74632;SDS011;63139;52.018;8.552;2023-06-22T03:11:33;14.68;;;11.93;;
74632;SDS011;63139;52.018;8.552;2023-06-22T03:14:02;16.00;;;12.95;;
74632;SDS011;63139;52.018;8.552;2023-06-22T03:16:30;17.17;;;14.15;;
74632;SDS011;63139;52.018;8.552;2023-06-22T03:18:59;15.50;;;12.75;;
74632;SDS011;63139;52.018;8.552;2023-06-22T03:21:28;14.48;;;11.50;;
74632;SDS011;63139;52.018;8.552;2023-06-22T03:23:59;13.77;;;11.45;;
74632;SDS011;63139;52.018;8.552;2023-06-22T03:26:27;15.85;;;11.60;;
74632;SDS011;63139;52.018;8.552;2023-06-22T03:28:56;11.95;;;10.57;;
74632;SDS011;63139;52.018;8.552;2023-06-22T03:31:24;15.50;;;12.27;;
74632;SDS011;63139;52.018;8.552;2023-06-22T03:33:52;16.38;;;11.82;;
74632;SDS011;63139;52.018;8.552;2023-06-22T03:36:22;15.02;;;11.48;;
74632;SDS011;63139;52.018;8.552;2023-06-22T03:38:51;16.23;;;13.38;;
74632;SDS011;63139;52.018;8.552;2023-06-22T03:41:19;15.40;;;11.95;;
74632;SDS011;63139;52.018;8.552;2023-06-22T03:43:48;16.35;;;13.38;;
74632;SDS011;63139;52.018;8.552;2023-06-22T03:46:16;18.02;;;14.05;;
74632;SDS011;63139;52.018;8.552;2023-06-22T03:48:44;14.45;;;12.05;;
74632;SDS011;63139;52.018;8.552;2023-06-22T03:51:12;16.80;;;13.15;;
74632;SDS011;63139;52.018;8.552;2023-06-22T03:53:40;17.17;;;13.52;;
74632;SDS011;63139;52.018;8.552;2023-06-22T03:56:09;15.57;;;11.80;;
74632;SDS011;63139;52.018;8.552;2023-06-22T03:58:37;14.20;;;11.05;;
74632;SDS011;63139;52.018;8.552;2023-06-22T04:01:09;12.70;;;10.43;;
74632;SDS011;63139;52.018;8.552;2023-06-22T04:03:38;15.65;;;12.77;;
74632;SDS011;63139;52.018;8.552;2023-06-22T04:06:06;14.30;;;12.48;;
74632;SDS011;63139;52.018;8.552;2023-06-22T04:08:34;15.25;;;12.30;;
74632;SDS011;63139;52.018;8.552;2023-06-22T04:11:02;15.95;;;12.63;;
74632;SDS011;63139;52.018;8.552;2023-06-22T04:13:32;15.25;;;12.80;;
74632;SDS011;63139;52.018;8.552;2023-06-22T04:16:00;15.45;;;13.07;;
74632;SDS011;63139;52.018;8.552;2023-06-22T04:18:28;15.00;;;12.27;;
74632;SDS011;63139;52.018;8.552;2023-06-22T04:20:56;15.05;;;11.70;;
74632;SDS011;63139;52.018;8.552;2023-06-22T04:23:24;17.33;;;12.90;;
74632;SDS011;63139;52.018;8.552;2023-06-22T04:25:52;16.70;;;13.32;;
74632;SDS011;63139;52.018;8.552;2023-06-22T04:28:19;13.85;;;11.32;;
74632;SDS011;63139;52.018;8.552;2023-06-22T04:30:49;14.02;;;12.43;;
74632;SDS011;63139;52.018;8.552;2023-06-22T04:33:17;13.07;;;10.40;;
74632;SDS011;63139;52.018;8.552;2023-06-22T04:35:45;12.32;;;10.45;;
74632;SDS011;63139;52.018;8.552;2023-06-22T04:38:13;15.80;;;11.30;;
74632;SDS011;63139;52.018;8.552;2023-06-22T04:40:41;13.10;;;11.02;;
74632;SDS011;63139;52.018;8.552;2023-06-22T04:43:09;14.23;;;11.48;;
74632;SDS011;63139;52.018;8.552;2023-06-22T04:45:36;14.75;;;11.63;;
74632;SDS011;63139;52.018;8.552;2023-06-22T04:48:06;15.15;;;12.38;;
74632;SDS011;63139;52.018;8.552;2023-06-22T04:50:35;15.23;;;11.43;;
74632;SDS011;63139;52.018;8.552;2023-06-22T04:53:05;16.55;;;12.88;;
74632;SDS011;63139;52.018;8.552;2023-06-22T04:55:33;18.33;;;12.63;;
74632;SDS011;63139;52.018;8.552;2023-06-22T04:58:04;20.88;;;11.88;;
74632;SDS011;63139;52.018;8.552;2023-06-22T05:00:32;15.75;;;11.18;;
74632;SDS011;63139;52.018;8.552;2023-06-22T05:03:02;13.40;;;11.10;;
74632;SDS011;63139;52.018;8.552;2023-06-22T05:05:45;14.45;;;11.68;;
74632;SDS011;63139;52.018;8.552;2023-06-22T05:08:13;16.05;;;12.45;;
74632;SDS011;63139;52.018;8.552;2023-06-22T05:10:41;15.25;;;11.30;;
74632;SDS011;63139;52.018;8.552;2023-06-22T05:13:28;13.05;;;11.15;;
74632;SDS011;63139;52.018;8.552;2023-06-22T05:15:56;16.02;;;12.45;;
74632;SDS011;63139;52.018;8.552;2023-06-22T05:18:27;14.77;;;11.40;;
74632;SDS011;63139;52.018;8.552;2023-06-22T05:20:58;18.20;;;12.98;;
74632;SDS011;63139;52.018;8.552;2023-06-22T05:23:26;13.80;;;10.35;;
74632;SDS011;63139;52.018;8.552;2023-06-22T05:25:54;14.68;;;10.88;;
74632;SDS011;63139;52.018;8.552;2023-06-22T05:28:24;11.88;;;10.23;;
74632;SDS011;63139;52.018;8.552;2023-06-22T05:30:52;13.60;;;12.20;;
74632;SDS011;63139;52.018;8.552;2023-06-22T05:33:20;14.85;;;11.23;;
74632;SDS011;63139;52.018;8.552;2023-06-22T05:35:47;14.70;;;10.05;;
74632;SDS011;63139;52.018;8.552;2023-06-22T05:38:17;17.38;;;13.02;;
74632;SDS011;63139;52.018;8.552;2023-06-22T05:40:44;13.43;;;11.93;;
74632;SDS011;63139;52.018;8.552;2023-06-22T05:43:12;15.35;;;11.52;;
74632;SDS011;63139;52.018;8.552;2023-06-22T05:45:40;12.70;;;11.38;;
74632;SDS011;63139;52.018;8.552;2023-06-22T05:48:08;14.82;;;12.00;;
74632;SDS011;63139;52.018;8.552;2023-06-22T05:50:36;14.23;;;12.02;;
74632;SDS011;63139;52.018;8.552;2023-06-22T05:53:04;13.32;;;10.50;;
74632;SDS011;63139;52.018;8.552;2023-06-22T05:55:34;13.27;;;11.48;;
74632;SDS011;63139;52.018;8.552;2023-06-22T05:58:02;14.73;;;12.02;;
74632;SDS011;63139;52.018;8.552;2023-06-22T06:00:31;13.77;;;10.60;;
74632;SDS011;63139;52.018;8.552;2023-06-22T06:02:59;11.63;;;9.30;;
74632;SDS011;63139;52.018;8.552;2023-06-22T06:05:30;15.95;;;11.77;;
74632;SDS011;63139;52.018;8.552;2023-06-22T06:07:59;14.60;;;11.88;;
74632;SDS011;63139;52.018;8.552;2023-06-22T06:10:27;11.90;;;10.30;;
74632;SDS011;63139;52.018;8.552;2023-06-22T06:12:58;12.85;;;10.88;;
74632;SDS011;63139;52.018;8.552;2023-06-22T06:15:28;14.70;;;10.75;;
74632;SDS011;63139;52.018;8.552;2023-06-22T06:17:56;11.93;;;10.60;;
74632;SDS011;63139;52.018;8.552;2023-06-22T06:20:25;11.73;;;10.15;;
74632;SDS011;63139;52.018;8.552;2023-06-22T06:22:54;12.38;;;10.80;;
74632;SDS011;63139;52.018;8.552;2023-06-22T06:25:23;12.20;;;10.15;;
74632;SDS011;63139;52.018;8.552;2023-06-22T06:27:52;13.80;;;10.90;;
74632;SDS011;63139;52.018;8.552;2023-06-22T06:30:22;15.43;;;11.02;;
74632;SDS011;63139;52.018;8.552;2023-06-22T06:32:50;13.25;;;11.85;;
74632;SDS011;63139;52.018;8.552;2023-06-22T06:35:18;13.40;;;11.75;;
74632;SDS011;63139;52.018;8.552;2023-06-22T06:37:47;10.70;;;8.48;;
74632;SDS011;63139;52.018;8.552;2023-06-22T06:40:17;11.55;;;9.82;;
74632;SDS011;63139;52.018;8.552;2023-06-22T06:42:46;14.85;;;10.85;;
74632;SDS011;63139;52.018;8.552;2023-06-22T06:45:16;12.23;;;10.93;;
74632;SDS011;63139;52.018;8.552;2023-06-22T06:47:46;10.18;;;9.07;;
74632;SDS011;63139;52.018;8.552;2023-06-22T06:50:14;10.50;;;9.40;;
74632;SDS011;63139;52.018;8.552;2023-06-22T06:52:43;12.82;;;10.68;;
74632;SDS011;63139;52.018;8.552;2023-06-22T06:55:11;10.75;;;9.55;;
74632;SDS011;63139;52.018;8.552;2023-06-22T06:57:40;10.88;;;9.77;;
74632;SDS011;63139;52.018;8.552;2023-06-22T07:00:10;10.95;;;9.13;;
74632;SDS011;63139;52.018;8.552;2023-06-22T07:02:41;9.18;;;8.23;;
74632;SDS011;63139;52.018;8.552;2023-06-22T07:05:11;9.45;;;8.45;;
74632;SDS011;63139;52.018;8.552;2023-06-22T07:07:39;10.38;;;9.07;;
74632;SDS011;63139;52.018;8.552;2023-06-22T07:10:09;11.70;;;9.32;;
74632;SDS011;63139;52.018;8.552;2023-06-22T07:12:37;11.13;;;8.57;;
74632;SDS011;63139;52.018;8.552;2023-06-22T07:15:05;9.85;;;8.85;;
74632;SDS011;63139;52.018;8.552;2023-06-22T07:17:35;9.55;;;8.57;;
74632;SDS011;63139;52.018;8.552;2023-06-22T07:20:04;11.27;;;10.00;;
74632;SDS011;63139;52.018;8.552;2023-06-22T07:22:39;10.10;;;9.10;;
74632;SDS011;63139;52.018;8.552;2023-06-22T07:25:08;11.60;;;10.40;;
74632;SDS011;63139;52.018;8.552;2023-06-22T07:27:37;10.13;;;9.05;;
74632;SDS011;63139;52.018;8.552;2023-06-22T07:30:06;9.88;;;8.82;;
74632;SDS011;63139;52.018;8.552;2023-06-22T07:32:35;10.63;;;9.52;;
74632;SDS011;63139;52.018;8.552;2023-06-22T07:35:03;12.43;;;10.25;;
74632;SDS011;63139;52.018;8.552;2023-06-22T07:37:32;13.50;;;10.95;;
74632;SDS011;63139;52.018;8.552;2023-06-22T07:40:03;13.73;;;11.52;;
74632;SDS011;63139;52.018;8.552;2023-06-22T07:42:33;13.98;;;11.43;;
74632;SDS011;63139;52.018;8.552;2023-06-22T07:45:03;12.13;;;10.70;;
74632;SDS011;63139;52.018;8.552;2023-06-22T07:47:34;13.85;;;11.32;;
74632;SDS011;63139;52.018;8.552;2023-06-22T07:50:02;11.73;;;9.82;;
74632;SDS011;63139;52.018;8.552;2023-06-22T07:52:31;12.77;;;10.25;;
74632;SDS011;63139;52.018;8.552;2023-06-22T07:54:59;11.85;;;10.23;;
74632;SDS011;63139;52.018;8.552;2023-06-22T07:57:30;11.85;;;10.65;;
74632;SDS011;63139;52.018;8.552;2023-06-22T08:00:00;12.80;;;11.25;;
74632;SDS011;63139;52.018;8.552;2023-06-22T08:02:38;11.38;;;10.25;;
74632;SDS011;63139;52.018;8.552;2023-06-22T08:05:07;13.57;;;11.32;;
74632;SDS011;63139;52.018;8.552;2023-06-22T08:07:46;12.13;;;10.82;;
74632;SDS011;63139;52.018;8.552;2023-06-22T08:10:15;11.52;;;9.50;;
74632;SDS011;63139;52.018;8.552;2023-06-22T08:12:45;11.13;;;9.75;;
74632;SDS011;63139;52.018;8.552;2023-06-22T08:15:15;12.68;;;10.38;;
74632;SDS011;63139;52.018;8.552;2023-06-22T08:17:43;13.48;;;10.82;;
74632;SDS011;63139;52.018;8.552;2023-06-22T08:20:12;15.50;;;11.27;;
74632;SDS011;63139;52.018;8.552;2023-06-22T08:22:40;13.02;;;10.98;;
74632;SDS011;63139;52.018;8.552;2023-06-22T08:25:09;14.77;;;10.82;;
74632;SDS011;63139;52.018;8.552;2023-06-22T08:27:39;10.82;;;9.73;;
74632;SDS011;63139;52.018;8.552;2023-06-22T08:30:09;15.50;;;12.88;;
74632;SDS011;63139;52.018;8.552;2023-06-22T08:32:38;12.35;;;11.02;;
74632;SDS011;63139;52.018;8.552;2023-06-22T08:35:07;12.20;;;10.68;;
74632;SDS011;63139;52.018;8.552;2023-06-22T08:37:36;12.40;;;10.60;;
74632;SDS011;63139;52.018;8.552;2023-06-22T08:40:06;13.75;;;12.18;;
74632;SDS011;63139;52.018;8.552;2023-06-22T08:42:37;13.60;;;11.43;;
74632;SDS011;63139;52.018;8.552;2023-06-22T08:45:10;12.75;;;11.45;;
74632;SDS011;63139;52.018;8.552;2023-06-22T08:47:38;11.32;;;10.07;;
74632;SDS011;63139;52.018;8.552;2023-06-22T08:50:06;11.27;;;10.07;;
74632;SDS011;63139;52.018;8.552;2023-06-22T08:52:35;12.70;;;11.02;;
74632;SDS011;63139;52.018;8.552;2023-06-22T08:55:04;11.57;;;10.38;;
74632;SDS011;63139;52.018;8.552;2023-06-22T08:57:32;14.32;;;10.75;;
74632;SDS011;63139;52.018;8.552;2023-06-22T09:00:00;11.25;;;10.13;;
74632;SDS011;63139;52.018;8.552;2023-06-22T09:02:32;11.40;;;10.13;;
74632;SDS011;63139;52.018;8.552;2023-06-22T09:05:03;12.68;;;11.43;;
74632;SDS011;63139;52.018;8.552;2023-06-22T09:07:31;11.20;;;10.05;;
74632;SDS011;63139;52.018;8.552;2023-06-22T09:10:00;10.10;;;8.93;;
74632;SDS011;63139;52.018;8.552;2023-06-22T09:12:30;12.35;;;10.43;;
74632;SDS011;63139;52.018;8.552;2023-06-22T09:15:01;12.20;;;10.18;;
74632;SDS011;63139;52.018;8.552;2023-06-22T09:17:29;11.50;;;10.02;;
74632;SDS011;63139;52.018;8.552;2023-06-22T09:19:59;13.30;;;9.95;;
74632;SDS011;63139;52.018;8.552;2023-06-22T09:22:27;10.35;;;9.35;;
74632;SDS011;63139;52.018;8.552;2023-06-22T09:24:55;10.95;;;9.93;;
74632;SDS011;63139;52.018;8.552;2023-06-22T09:27:23;10.60;;;9.52;;
74632;SDS011;63139;52.018;8.552;2023-06-22T09:29:51;10.95;;;8.95;;
74632;SDS011;63139;52.018;8.552;2023-06-22T09:32:19;8.75;;;7.95;;
74632;SDS011;63139;52.018;8.552;2023-06-22T09:34:47;10.60;;;8.00;;
74632;SDS011;63139;52.018;8.552;2023-06-22T09:37:17;10.82;;;7.63;;
74632;SDS011;63139;52.018;8.552;2023-06-22T09:39:45;8.40;;;7.68;;
74632;SDS011;63139;52.018;8.552;2023-06-22T09:42:12;10.25;;;8.85;;
74632;SDS011;63139;52.018;8.552;2023-06-22T09:44:40;9.38;;;8.38;;
74632;SDS011;63139;52.018;8.552;2023-06-22T09:47:08;7.47;;;6.53;;
74632;SDS011;63139;52.018;8.552;2023-06-22T09:49:36;7.75;;;6.88;;
74632;SDS011;63139;52.018;8.552;2023-06-22T09:52:14;8.38;;;7.57;;
74632;SDS011;63139;52.018;8.552;2023-06-22T09:54:43;8.00;;;7.20;;
74632;SDS011;63139;52.018;8.552;2023-06-22T09:57:11;8.10;;;7.38;;
74632;SDS011;63139;52.018;8.552;2023-06-22T09:59:39;10.02;;;7.60;;
74632;SDS011;63139;52.018;8.552;2023-06-22T10:02:07;10.13;;;8.68;;
74632;SDS011;63139;52.018;8.552;2023-06-22T10:04:35;8.95;;;8.05;;
74632;SDS011;63139;52.018;8.552;2023-06-22T10:07:04;10.15;;;9.00;;
74632;SDS011;63139;52.018;8.552;2023-06-22T10:09:32;9.75;;;8.77;;
74632;SDS011;63139;52.018;8.552;2023-06-22T10:12:02;9.82;;;8.60;;
74632;SDS011;63139;52.018;8.552;2023-06-22T10:14:30;10.27;;;8.48;;
74632;SDS011;63139;52.018;8.552;2023-06-22T10:16:58;9.75;;;8.68;;
74632;SDS011;63139;52.018;8.552;2023-06-22T10:19:28;10.82;;;9.00;;
74632;SDS011;63139;52.018;8.552;2023-06-22T10:21:56;9.73;;;8.73;;
74632;SDS011;63139;52.018;8.552;2023-06-22T10:24:24;9.18;;;8.20;;
74632;SDS011;63139;52.018;8.552;2023-06-22T10:26:52;11.15;;;8.75;;
74632;SDS011;63139;52.018;8.552;2023-06-22T10:29:21;9.57;;;8.57;;
74632;SDS011;63139;52.018;8.552;2023-06-22T10:31:49;9.43;;;8.48;;
74632;SDS011;63139;52.018;8.552;2023-06-22T10:34:17;11.35;;;9.45;;
74632;SDS011;63139;52.018;8.552;2023-06-22T10:36:45;9.25;;;7.78;;
74632;SDS011;63139;52.018;8.552;2023-06-22T10:39:15;10.07;;;8.60;;
74632;SDS011;63139;52.018;8.552;2023-06-22T10:41:43;9.80;;;8.15;;
74632;SDS011;63139;52.018;8.552;2023-06-22T10:44:10;8.73;;;7.93;;
74632;SDS011;63139;52.018;8.552;2023-06-22T10:46:41;8.40;;;7.60;;
74632;SDS011;63139;52.018;8.552;2023-06-22T10:49:08;9.90;;;8.13;;
74632;SDS011;63139;52.018;8.552;2023-06-22T10:51:38;8.20;;;7.40;;
74632;SDS011;63139;52.018;8.552;2023-06-22T10:54:05;7.25;;;6.53;;
74632;SDS011;63139;52.018;8.552;2023-06-22T10:56:33;8.38;;;7.45;;
74632;SDS011;63139;52.018;8.552;2023-06-22T10:59:01;11.60;;;7.60;;
74632;SDS011;63139;52.018;8.552;2023-06-22T11:01:29;8.02;;;6.80;;
74632;SDS011;63139;52.018;8.552;2023-06-22T11:04:03;7.25;;;6.55;;
74632;SDS011;63139;52.018;8.552;2023-06-22T11:06:31;7.93;;;7.10;;
74632;SDS011;63139;52.018;8.552;2023-06-22T11:08:59;8.02;;;7.28;;
74632;SDS011;63139;52.018;8.552;2023-06-22T11:11:47;7.43;;;6.72;;
74632;SDS011;63139;52.018;8.552;2023-06-22T11:14:16;7.53;;;6.82;;
74632;SDS011;63139;52.018;8.552;2023-06-22T11:16:44;8.25;;;7.18;;
74632;SDS011;63139;52.018;8.552;2023-06-22T11:19:17;8.02;;;7.22;;
74632;SDS011;63139;52.018;8.552;2023-06-22T11:21:45;7.32;;;6.63;;
74632;SDS011;63139;52.018;8.552;2023-06-22T11:24:13;7.50;;;6.78;;
74632;SDS011;63139;52.018;8.552;2023-06-22T11:26:42;8.43;;;6.35;;
74632;SDS011;63139;52.018;8.552;2023-06-22T11:29:10;6.55;;;5.95;;
74632;SDS011;63139;52.018;8.552;2023-06-22T11:31:57;9.88;;;8.32;;
74632;SDS011;63139;52.018;8.552;2023-06-22T11:34:27;8.70;;;7.65;;
74632;SDS011;63139;52.018;8.552;2023-06-22T11:36:56;9.75;;;8.85;;
74632;SDS011;63139;52.018;8.552;2023-06-22T11:39:23;8.90;;;8.10;;
74632;SDS011;63139;52.018;8.552;2023-06-22T11:42:08;7.25;;;6.65;;
74632;SDS011;63139;52.018;8.552;2023-06-22T11:44:36;9.00;;;7.85;;
74632;SDS011;63139;52.018;8.552;2023-06-22T11:47:05;6.95;;;6.35;;
74632;SDS011;63139;52.018;8.552;2023-06-22T11:49:34;8.55;;;6.93;;
74632;SDS011;63139;52.018;8.552;2023-06-22T11:52:02;7.97;;;6.70;;
74632;SDS011;63139;52.018;8.552;2023-06-22T11:54:30;9.48;;;7.30;;
74632;SDS011;63139;52.018;8.552;2023-06-22T11:56:58;14.10;;;8.18;;
74632;SDS011;63139;52.018;8.552;2023-06-22T11:59:26;8.70;;;7.50;;
74632;SDS011;63139;52.018;8.552;2023-06-22T12:01:54;9.45;;;8.10;;
74632;SDS011;63139;52.018;8.552;2023-06-22T12:04:21;10.35;;;8.73;;
74632;SDS011;63139;52.018;8.552;2023-06-22T12:06:51;9.05;;;8.15;;
74632;SDS011;63139;52.018;8.552;2023-06-22T12:09:18;8.68;;;7.85;;
74632;SDS011;63139;52.018;8.552;2023-06-22T12:11:46;12.63;;;8.00;;
74632;SDS011;63139;52.018;8.552;2023-06-22T12:14:14;8.65;;;7.80;;
74632;SDS011;63139;52.018;8.552;2023-06-22T12:16:42;8.75;;;7.85;;
74632;SDS011;63139;52.018;8.552;2023-06-22T12:19:10;8.93;;;8.02;;
74632;SDS011;63139;52.018;8.552;2023-06-22T12:21:38;7.95;;;7.15;;
74632;SDS011;63139;52.018;8.552;2023-06-22T12:24:08;8.10;;;7.18;;
74632;SDS011;63139;52.018;8.552;2023-06-22T12:26:36;9.70;;;7.40;;
74632;SDS011;63139;52.018;8.552;2023-06-22T12:29:04;8.15;;;7.40;;
74632;SDS011;63139;52.018;8.552;2023-06-22T12:31:32;8.45;;;7.70;;
74632;SDS011;63139;52.018;8.552;2023-06-22T12:34:00;7.88;;;7.15;;
74632;SDS011;63139;52.018;8.552;2023-06-22T12:36:28;8.98;;;8.07;;
74632;SDS011;63139;52.018;8.552;2023-06-22T12:38:56;9.07;;;8.20;;
74632;SDS011;63139;52.018;8.552;2023-06-22T12:41:25;11.13;;;8.52;;
74632;SDS011;63139;52.018;8.552;2023-06-22T12:43:53;9.75;;;8.43;;
74632;SDS011;63139;52.018;8.552;2023-06-22T12:46:21;9.63;;;8.63;;
74632;SDS011;63139;52.018;8.552;2023-06-22T12:48:48;10.75;;;8.98;;
74632;SDS011;63139;52.018;8.552;2023-06-22T12:51:20;10.70;;;9.05;;
74632;SDS011;63139;52.018;8.552;2023-06-22T12:53:49;9.85;;;8.85;;
74632;SDS011;63139;52.018;8.552;2023-06-22T12:56:17;10.35;;;9.07;;
74632;SDS011;63139;52.018;8.552;2023-06-22T12:58:46;9.98;;;8.82;;
74632;SDS011;63139;52.018;8.552;2023-06-22T13:01:14;14.40;;;9.15;;
74632;SDS011;63139;52.018;8.552;2023-06-22T13:03:44;11.60;;;9.48;;
74632;SDS011;63139;52.018;8.552;2023-06-22T13:06:12;9.98;;;8.48;;
74632;SDS011;63139;52.018;8.552;2023-06-22T13:08:40;12.13;;;10.93;;
74632;SDS011;63139;52.018;8.552;2023-06-22T13:11:11;11.45;;;10.30;;
74632;SDS011;63139;52.018;8.552;2023-06-22T13:13:39;11.63;;;10.55;;
74632;SDS011;63139;52.018;8.552;2023-06-22T13:16:09;12.80;;;10.68;;
74632;SDS011;63139;52.018;8.552;2023-06-22T13:18:37;13.05;;;10.95;;
74632;SDS011;63139;52.018;8.552;2023-06-22T13:21:05;13.82;;;11.27;;
74632;SDS011;63139;52.018;8.552;2023-06-22T13:23:33;11.63;;;10.40;;
74632;SDS011;63139;52.018;8.552;2023-06-22T13:26:01;12.73;;;11.23;;
74632;SDS011;63139;52.018;8.552;2023-06-22T13:28:29;14.32;;;11.27;;
74632;SDS011;63139;52.018;8.552;2023-06-22T13:30:57;14.77;;;12.73;;
74632;SDS011;63139;52.018;8.552;2023-06-22T13:33:26;13.40;;;12.00;;
74632;SDS011;63139;52.018;8.552;2023-06-22T13:35:54;14.02;;;12.50;;
74632;SDS011;63139;52.018;8.552;2023-06-22T13:38:22;17.33;;;13.95;;
74632;SDS011;63139;52.018;8.552;2023-06-22T13:40:50;15.27;;;11.90;;
74632;SDS011;63139;52.018;8.552;2023-06-22T13:43:18;15.77;;;13.63;;
74632;SDS011;63139;52.018;8.552;2023-06-22T13:45:46;15.02;;;12.02;;
74632;SDS011;63139;52.018;8.552;2023-06-22T13:48:13;17.52;;;14.10;;
74632;SDS011;63139;52.018;8.552;2023-06-22T13:50:43;17.88;;;14.57;;
74632;SDS011;63139;52.018;8.552;2023-06-22T13:53:10;18.83;;;15.27;;
74632;SDS011;63139;52.018;8.552;2023-06-22T13:55:39;18.65;;;14.25;;
74632;SDS011;63139;52.018;8.552;2023-06-22T13:58:07;18.30;;;14.52;;
74632;SDS011;63139;52.018;8.552;2023-06-22T14:00:35;20.00;;;16.75;;
74632;SDS011;63139;52.018;8.552;2023-06-22T14:03:03;20.80;;;17.27;;
74632;SDS011;63139;52.018;8.552;2023-06-22T14:05:31;31.17;;;21.48;;
74632;SDS011;63139;52.018;8.552;2023-06-22T14:08:01;32.92;;;23.42;;
74632;SDS011;63139;52.018;8.552;2023-06-22T14:10:37;29.73;;;22.77;;
74632;SDS011;63139;52.018;8.552;2023-06-22T14:13:05;24.40;;;20.00;;
74632;SDS011;63139;52.018;8.552;2023-06-22T14:15:33;37.67;;;24.70;;
74632;SDS011;63139;52.018;8.552;2023-06-22T14:18:00;33.22;;;23.35;;
74632;SDS011;63139;52.018;8.552;2023-06-22T14:20:28;30.90;;;22.15;;
74632;SDS011;63139;52.018;8.552;2023-06-22T14:22:56;32.60;;;24.58;;
74632;SDS011;63139;52.018;8.552;2023-06-22T14:25:26;39.42;;;27.23;;
74632;SDS011;63139;52.018;8.552;2023-06-22T14:27:53;35.58;;;24.10;;
74632;SDS011;63139;52.018;8.552;2023-06-22T14:30:21;41.47;;;25.65;;
74632;SDS011;63139;52.018;8.552;2023-06-22T14:32:55;39.63;;;24.45;;
74632;SDS011;63139;52.018;8.552;2023-06-22T14:35:24;36.70;;;26.83;;
74632;SDS011;63139;52.018;8.552;2023-06-22T14:37:52;36.47;;;27.00;;
74632;SDS011;63139;52.018;8.552;2023-06-22T14:40:20;35.13;;;24.42;;
74632;SDS011;63139;52.018;8.552;2023-06-22T14:42:53;37.72;;;25.02;;
74632;SDS011;63139;52.018;8.552;2023-06-22T14:45:22;34.00;;;23.48;;